sensor_id;sensor_type;location;lat;lon;timestamp;pressure;altitude;pressure_sealevel;temperature;humidity
23361;BME280;11852;50.082;18.554;2023-04-24T00:00:36;97665.5;;;14.0;60.58
23361;BME280;11852;50.082;18.554;2023-04-24T00:01:43;97665.0;;;14.01;60.21
23361;BME280;11852;50.082;18.554;2023-04-24T00:02:51;97664.0;;;14.03;60.54
23361;BME280;11852;50.082;18.554;2023-04-24T00:03:58;97664.5;;;14.05;60.58
23361;BME280;11852;50.082;18.554;2023-04-24T00:05:05;97663.0;;;14.05;60.54
23361;BME280;11852;50.082;18.554;2023-04-24T00:06:12;97662.0;;;14.05;60.6
23361;BME280;11852;50.082;18.554;2023-04-24T00:07:19;97662.0;;;14.06;59.91
23361;BME280;11852;50.082;18.554;2023-04-24T00:08:26;97661.0;;;14.07;60.01
23361;BME280;11852;50.082;18.554;2023-04-24T00:09:33;97660.0;;;14.06;59.81
23361;BME280;11852;50.082;18.554;2023-04-24T00:10:40;97656.5;;;14.07;59.58
23361;BME280;11852;50.082;18.554;2023-04-24T00:11:47;97659.5;;;14.07;59.19
23361;BME280;11852;50.082;18.554;2023-04-24T00:12:55;97657.99;;;14.09;59.17
23361;BME280;11852;50.082;18.554;2023-04-24T00:14:03;97655.01;;;14.08;59.05
23361;BME280;11852;50.082;18.554;2023-04-24T00:15:10;97654.5;;;14.09;58.45
23361;BME280;11852;50.082;18.554;2023-04-24T00:16:17;97653.5;;;14.08;58.31
23361;BME280;11852;50.082;18.554;2023-04-24T00:17:23;97651.5;;;14.09;57.99
23361;BME280;11852;50.082;18.554;2023-04-24T00:18:30;97650.5;;;14.1;57.89
23361;BME280;11852;50.082;18.554;2023-04-24T00:19:37;97653.5;;;14.1;57.85
23361;BME280;11852;50.082;18.554;2023-04-24T00:20:44;97649.0;;;14.1;57.58
23361;BME280;11852;50.082;18.554;2023-04-24T00:21:51;97647.5;;;14.12;57.67
23361;BME280;11852;50.082;18.554;2023-04-24T00:23:00;97645.49;;;14.14;57.37
23361;BME280;11852;50.082;18.554;2023-04-24T00:24:07;97643.0;;;14.14;57.03
23361;BME280;11852;50.082;18.554;2023-04-24T00:25:14;97642.5;;;14.14;57.13
23361;BME280;11852;50.082;18.554;2023-04-24T00:26:21;97640.0;;;14.14;56.54
23361;BME280;11852;50.082;18.554;2023-04-24T00:27:28;97640.5;;;14.18;56.47
23361;BME280;11852;50.082;18.554;2023-04-24T00:28:35;97639.5;;;14.18;56.14
23361;BME280;11852;50.082;18.554;2023-04-24T00:29:42;97636.0;;;14.18;55.9
23361;BME280;11852;50.082;18.554;2023-04-24T00:30:49;97636.0;;;14.18;55.79
23361;BME280;11852;50.082;18.554;2023-04-24T00:31:57;97637.0;;;14.16;55.54
23361;BME280;11852;50.082;18.554;2023-04-24T00:33:03;97635.5;;;14.17;54.77
23361;BME280;11852;50.082;18.554;2023-04-24T00:34:10;97635.5;;;14.2;54.94
23361;BME280;11852;50.082;18.554;2023-04-24T00:35:17;97634.0;;;14.22;54.63
23361;BME280;11852;50.082;18.554;2023-04-24T00:36:24;97630.0;;;14.22;54.47
23361;BME280;11852;50.082;18.554;2023-04-24T00:37:31;97630.5;;;14.19;54.51
23361;BME280;11852;50.082;18.554;2023-04-24T00:38:39;97628.0;;;14.19;54.43
23361;BME280;11852;50.082;18.554;2023-04-24T00:39:46;97625.0;;;14.24;54.29
23361;BME280;11852;50.082;18.554;2023-04-24T00:40:53;97622.0;;;14.24;54.45
23361;BME280;11852;50.082;18.554;2023-04-24T00:41:59;97619.0;;;14.26;54.35
23361;BME280;11852;50.082;18.554;2023-04-24T00:43:06;97616.0;;;14.24;54.35
23361;BME280;11852;50.082;18.554;2023-04-24T00:44:13;97616.0;;;14.26;54.36
23361;BME280;11852;50.082;18.554;2023-04-24T00:45:20;97618.01;;;14.3;54.33
23361;BME280;11852;50.082;18.554;2023-04-24T00:46:27;97616.0;;;14.28;54.27
23361;BME280;11852;50.082;18.554;2023-04-24T00:47:34;97615.5;;;14.3;54.28
23361;BME280;11852;50.082;18.554;2023-04-24T00:48:41;97614.0;;;14.31;54.36
23361;BME280;11852;50.082;18.554;2023-04-24T00:49:49;97617.01;;;14.29;54.42
23361;BME280;11852;50.082;18.554;2023-04-24T00:50:57;97616.0;;;14.3;54.62
23361;BME280;11852;50.082;18.554;2023-04-24T00:52:03;97617.01;;;14.31;54.56
23361;BME280;11852;50.082;18.554;2023-04-24T00:53:10;97616.5;;;14.28;54.76
23361;BME280;11852;50.082;18.554;2023-04-24T00:54:17;97615.5;;;14.22;54.67
23361;BME280;11852;50.082;18.554;2023-04-24T00:55:24;97613.5;;;14.26;54.51
23361;BME280;11852;50.082;18.554;2023-04-24T00:56:31;97613.0;;;14.26;54.52
23361;BME280;11852;50.082;18.554;2023-04-24T00:57:38;97610.5;;;14.21;54.49
23361;BME280;11852;50.082;18.554;2023-04-24T00:58:45;97611.0;;;14.23;54.44
23361;BME280;11852;50.082;18.554;2023-04-24T00:59:52;97608.0;;;14.23;54.4
23361;BME280;11852;50.082;18.554;2023-04-24T01:00:59;97606.0;;;14.24;54.36
23361;BME280;11852;50.082;18.554;2023-04-24T01:02:05;97606.0;;;14.24;54.41
23361;BME280;11852;50.082;18.554;2023-04-24T01:03:13;97603.5;;;14.27;54.33
23361;BME280;11852;50.082;18.554;2023-04-24T01:04:20;97605.51;;;14.28;54.26
23361;BME280;11852;50.082;18.554;2023-04-24T01:05:27;97606.0;;;14.27;54.19
23361;BME280;11852;50.082;18.554;2023-04-24T01:06:34;97606.0;;;14.28;54.04
23361;BME280;11852;50.082;18.554;2023-04-24T01:07:41;97609.0;;;14.28;53.97
23361;BME280;11852;50.082;18.554;2023-04-24T01:08:47;97604.51;;;14.28;53.78
23361;BME280;11852;50.082;18.554;2023-04-24T01:09:54;97604.5;;;14.27;53.75
23361;BME280;11852;50.082;18.554;2023-04-24T01:11:01;97603.0;;;14.28;53.63
23361;BME280;11852;50.082;18.554;2023-04-24T01:12:08;97603.5;;;14.3;53.59
23361;BME280;11852;50.082;18.554;2023-04-24T01:13:15;97603.5;;;14.31;53.46
23361;BME280;11852;50.082;18.554;2023-04-24T01:14:22;97598.5;;;14.28;53.21
23361;BME280;11852;50.082;18.554;2023-04-24T01:15:29;97603.0;;;14.27;53.15
23361;BME280;11852;50.082;18.554;2023-04-24T01:16:36;97601.0;;;14.31;53.24
23361;BME280;11852;50.082;18.554;2023-04-24T01:17:43;97599.0;;;14.3;53.24
23361;BME280;11852;50.082;18.554;2023-04-24T01:18:51;97601.0;;;14.33;53.07
23361;BME280;11852;50.082;18.554;2023-04-24T01:19:59;97598.0;;;14.34;52.99
23361;BME280;11852;50.082;18.554;2023-04-24T01:21:05;97600.0;;;14.35;53.06
23361;BME280;11852;50.082;18.554;2023-04-24T01:22:15;97597.5;;;14.36;53.03
23361;BME280;11852;50.082;18.554;2023-04-24T01:23:19;97600.0;;;14.38;53.11
23361;BME280;11852;50.082;18.554;2023-04-24T01:24:26;97596.0;;;14.34;53.04
23361;BME280;11852;50.082;18.554;2023-04-24T01:25:33;97599.0;;;14.34;53.01
23361;BME280;11852;50.082;18.554;2023-04-24T01:26:40;97598.0;;;14.33;53.1
23361;BME280;11852;50.082;18.554;2023-04-24T01:27:47;97595.0;;;14.36;53.26
23361;BME280;11852;50.082;18.554;2023-04-24T01:28:53;97594.5;;;14.37;53.06
23361;BME280;11852;50.082;18.554;2023-04-24T01:30:00;97594.0;;;14.36;53.05
23361;BME280;11852;50.082;18.554;2023-04-24T01:31:07;97592.0;;;14.36;53.11
23361;BME280;11852;50.082;18.554;2023-04-24T01:32:14;97591.0;;;14.36;53.19
23361;BME280;11852;50.082;18.554;2023-04-24T01:33:22;97591.5;;;14.36;53.17
23361;BME280;11852;50.082;18.554;2023-04-24T01:34:29;97589.0;;;14.37;53.36
23361;BME280;11852;50.082;18.554;2023-04-24T01:35:37;97591.5;;;14.38;53.13
23361;BME280;11852;50.082;18.554;2023-04-24T01:36:45;97592.01;;;14.35;53.49
23361;BME280;11852;50.082;18.554;2023-04-24T01:37:50;97590.5;;;14.35;53.69
23361;BME280;11852;50.082;18.554;2023-04-24T01:38:57;97587.0;;;14.34;53.6
23361;BME280;11852;50.082;18.554;2023-04-24T01:40:07;97590.0;;;14.35;53.67
23361;BME280;11852;50.082;18.554;2023-04-24T01:41:14;97590.5;;;14.32;53.68
23361;BME280;11852;50.082;18.554;2023-04-24T01:42:21;97588.5;;;14.3;53.72
23361;BME280;11852;50.082;18.554;2023-04-24T01:43:27;97585.0;;;14.27;53.86
23361;BME280;11852;50.082;18.554;2023-04-24T01:44:35;97587.5;;;14.27;53.82
23361;BME280;11852;50.082;18.554;2023-04-24T01:45:42;97584.5;;;14.26;53.76
23361;BME280;11852;50.082;18.554;2023-04-24T01:46:51;97585.0;;;14.25;53.78
23361;BME280;11852;50.082;18.554;2023-04-24T01:47:58;97584.0;;;14.24;53.83
23361;BME280;11852;50.082;18.554;2023-04-24T01:49:05;97581.0;;;14.23;53.75
23361;BME280;11852;50.082;18.554;2023-04-24T01:50:12;97582.0;;;14.23;53.75
23361;BME280;11852;50.082;18.554;2023-04-24T01:51:18;97581.99;;;14.23;53.73
23361;BME280;11852;50.082;18.554;2023-04-24T01:52:25;97582.0;;;14.23;53.65
23361;BME280;11852;50.082;18.554;2023-04-24T01:53:32;97580.51;;;14.24;53.45
23361;BME280;11852;50.082;18.554;2023-04-24T01:54:39;97578.0;;;14.25;53.31
23361;BME280;11852;50.082;18.554;2023-04-24T01:55:46;97578.5;;;14.24;53.26
23361;BME280;11852;50.082;18.554;2023-04-24T01:56:53;97579.5;;;14.22;53.22
23361;BME280;11852;50.082;18.554;2023-04-24T01:57:59;97578.5;;;14.18;53.22
23361;BME280;11852;50.082;18.554;2023-04-24T01:59:06;97578.5;;;14.19;53.25
23361;BME280;11852;50.082;18.554;2023-04-24T02:00:13;97577.0;;;14.16;53.15
23361;BME280;11852;50.082;18.554;2023-04-24T02:01:22;97577.5;;;14.2;53.18
23361;BME280;11852;50.082;18.554;2023-04-24T02:02:28;97577.0;;;14.2;53.43
23361;BME280;11852;50.082;18.554;2023-04-24T02:03:35;97578.0;;;14.16;53.45
23361;BME280;11852;50.082;18.554;2023-04-24T02:04:42;97577.0;;;14.2;53.44
23361;BME280;11852;50.082;18.554;2023-04-24T02:05:49;97578.5;;;14.2;53.52
23361;BME280;11852;50.082;18.554;2023-04-24T02:06:56;97578.5;;;14.25;53.5
23361;BME280;11852;50.082;18.554;2023-04-24T02:08:03;97576.0;;;14.23;53.54
23361;BME280;11852;50.082;18.554;2023-04-24T02:09:09;97573.0;;;14.26;53.44
23361;BME280;11852;50.082;18.554;2023-04-24T02:10:16;97572.5;;;14.26;53.39
23361;BME280;11852;50.082;18.554;2023-04-24T02:11:23;97572.5;;;14.27;53.3
23361;BME280;11852;50.082;18.554;2023-04-24T02:12:30;97571.5;;;14.26;53.33
23361;BME280;11852;50.082;18.554;2023-04-24T02:13:37;97568.01;;;14.26;53.38
23361;BME280;11852;50.082;18.554;2023-04-24T02:14:44;97567.01;;;14.26;53.38
23361;BME280;11852;50.082;18.554;2023-04-24T02:15:51;97568.01;;;14.24;53.14
23361;BME280;11852;50.082;18.554;2023-04-24T02:16:58;97569.0;;;14.24;53.24
23361;BME280;11852;50.082;18.554;2023-04-24T02:18:05;97569.0;;;14.26;53.26
23361;BME280;11852;50.082;18.554;2023-04-24T02:19:12;97571.0;;;14.24;53.17
23361;BME280;11852;50.082;18.554;2023-04-24T02:20:20;97568.5;;;14.24;53.16
23361;BME280;11852;50.082;18.554;2023-04-24T02:21:28;97571.0;;;14.2;53.16
23361;BME280;11852;50.082;18.554;2023-04-24T02:22:35;97572.5;;;14.22;53.14
23361;BME280;11852;50.082;18.554;2023-04-24T02:23:42;97567.51;;;14.23;53.15
23361;BME280;11852;50.082;18.554;2023-04-24T02:24:49;97568.0;;;14.22;53.08
23361;BME280;11852;50.082;18.554;2023-04-24T02:25:56;97569.0;;;14.24;53.08
23361;BME280;11852;50.082;18.554;2023-04-24T02:27:03;97567.0;;;14.24;52.85
23361;BME280;11852;50.082;18.554;2023-04-24T02:28:10;97566.0;;;14.16;53.11
23361;BME280;11852;50.082;18.554;2023-04-24T02:29:16;97564.5;;;14.19;53.03
23361;BME280;11852;50.082;18.554;2023-04-24T02:30:23;97561.5;;;14.16;52.85
23361;BME280;11852;50.082;18.554;2023-04-24T02:31:30;97562.5;;;14.18;52.72
23361;BME280;11852;50.082;18.554;2023-04-24T02:32:37;97562.0;;;14.22;52.72
23361;BME280;11852;50.082;18.554;2023-04-24T02:33:44;97562.5;;;14.24;52.74
23361;BME280;11852;50.082;18.554;2023-04-24T02:34:51;97560.0;;;14.2;52.61
23361;BME280;11852;50.082;18.554;2023-04-24T02:35:58;97561.5;;;14.21;52.67
23361;BME280;11852;50.082;18.554;2023-04-24T02:37:05;97559.5;;;14.2;52.65
23361;BME280;11852;50.082;18.554;2023-04-24T02:38:12;97560.0;;;14.22;52.58
23361;BME280;11852;50.082;18.554;2023-04-24T02:39:18;97559.0;;;14.23;52.62
23361;BME280;11852;50.082;18.554;2023-04-24T02:40:25;97558.5;;;14.22;52.67
23361;BME280;11852;50.082;18.554;2023-04-24T02:41:32;97559.5;;;14.23;52.62
23361;BME280;11852;50.082;18.554;2023-04-24T02:42:39;97557.49;;;14.24;52.64
23361;BME280;11852;50.082;18.554;2023-04-24T02:43:46;97555.5;;;14.23;52.5
23361;BME280;11852;50.082;18.554;2023-04-24T02:44:55;97557.0;;;14.24;52.5
23361;BME280;11852;50.082;18.554;2023-04-24T02:46:01;97554.0;;;14.26;52.5
23361;BME280;11852;50.082;18.554;2023-04-24T02:47:08;97555.5;;;14.26;52.67
23361;BME280;11852;50.082;18.554;2023-04-24T02:48:15;97555.0;;;14.23;52.59
23361;BME280;11852;50.082;18.554;2023-04-24T02:49:22;97556.0;;;14.23;52.65
23361;BME280;11852;50.082;18.554;2023-04-24T02:50:29;97555.5;;;14.2;52.71
23361;BME280;11852;50.082;18.554;2023-04-24T02:51:38;97558.0;;;14.17;52.9
23361;BME280;11852;50.082;18.554;2023-04-24T02:52:45;97558.0;;;14.15;52.91
23361;BME280;11852;50.082;18.554;2023-04-24T02:53:54;97557.5;;;14.14;52.8
23361;BME280;11852;50.082;18.554;2023-04-24T02:55:01;97556.0;;;14.12;52.79
23361;BME280;11852;50.082;18.554;2023-04-24T02:56:08;97554.0;;;14.14;52.83
23361;BME280;11852;50.082;18.554;2023-04-24T02:57:16;97553.0;;;14.13;52.89
23361;BME280;11852;50.082;18.554;2023-04-24T02:58:23;97552.0;;;14.13;52.79
23361;BME280;11852;50.082;18.554;2023-04-24T02:59:30;97550.5;;;14.13;52.79
23361;BME280;11852;50.082;18.554;2023-04-24T03:00:37;97550.5;;;14.11;52.83
23361;BME280;11852;50.082;18.554;2023-04-24T03:01:43;97549.5;;;14.14;52.6
23361;BME280;11852;50.082;18.554;2023-04-24T03:02:51;97550.5;;;14.09;52.84
23361;BME280;11852;50.082;18.554;2023-04-24T03:03:59;97550.0;;;14.08;52.67
23361;BME280;11852;50.082;18.554;2023-04-24T03:05:06;97546.0;;;14.1;52.53
23361;BME280;11852;50.082;18.554;2023-04-24T03:06:13;97548.5;;;14.12;52.49
23361;BME280;11852;50.082;18.554;2023-04-24T03:07:20;97546.5;;;14.14;52.34
23361;BME280;11852;50.082;18.554;2023-04-24T03:08:27;97548.5;;;14.15;52.24
23361;BME280;11852;50.082;18.554;2023-04-24T03:09:33;97550.0;;;14.18;52.29
23361;BME280;11852;50.082;18.554;2023-04-24T03:10:40;97547.5;;;14.18;52.19
23361;BME280;11852;50.082;18.554;2023-04-24T03:11:48;97548.0;;;14.19;52.17
23361;BME280;11852;50.082;18.554;2023-04-24T03:12:55;97546.0;;;14.19;52.22
23361;BME280;11852;50.082;18.554;2023-04-24T03:14:03;97545.49;;;14.18;52.35
23361;BME280;11852;50.082;18.554;2023-04-24T03:15:11;97544.0;;;14.16;52.46
23361;BME280;11852;50.082;18.554;2023-04-24T03:16:19;97542.51;;;14.16;52.57
23361;BME280;11852;50.082;18.554;2023-04-24T03:17:26;97544.0;;;14.15;52.35
23361;BME280;11852;50.082;18.554;2023-04-24T03:18:34;97544.0;;;14.13;52.49
23361;BME280;11852;50.082;18.554;2023-04-24T03:19:40;97545.0;;;14.13;52.47
23361;BME280;11852;50.082;18.554;2023-04-24T03:20:47;97543.5;;;14.14;52.5
23361;BME280;11852;50.082;18.554;2023-04-24T03:21:54;97542.0;;;14.09;52.58
23361;BME280;11852;50.082;18.554;2023-04-24T03:23:01;97540.0;;;14.08;52.44
23361;BME280;11852;50.082;18.554;2023-04-24T03:24:08;97540.5;;;14.09;52.5
23361;BME280;11852;50.082;18.554;2023-04-24T03:25:15;97541.5;;;14.08;52.48
23361;BME280;11852;50.082;18.554;2023-04-24T03:26:22;97541.5;;;14.07;52.57
23361;BME280;11852;50.082;18.554;2023-04-24T03:27:29;97537.0;;;14.07;52.6
23361;BME280;11852;50.082;18.554;2023-04-24T03:28:36;97536.5;;;14.05;52.57
23361;BME280;11852;50.082;18.554;2023-04-24T03:29:42;97536.0;;;14.06;52.51
23361;BME280;11852;50.082;18.554;2023-04-24T03:30:50;97538.5;;;14.02;52.61
23361;BME280;11852;50.082;18.554;2023-04-24T03:31:57;97540.0;;;14.02;52.75
23361;BME280;11852;50.082;18.554;2023-04-24T03:33:06;97540.0;;;14.01;52.61
23361;BME280;11852;50.082;18.554;2023-04-24T03:34:12;97539.5;;;14.05;52.54
23361;BME280;11852;50.082;18.554;2023-04-24T03:35:18;97541.5;;;14.01;52.53
23361;BME280;11852;50.082;18.554;2023-04-24T03:36:25;97540.5;;;14.06;52.42
23361;BME280;11852;50.082;18.554;2023-04-24T03:37:32;97539.0;;;14.06;52.4
23361;BME280;11852;50.082;18.554;2023-04-24T03:38:39;97541.5;;;14.09;52.35
23361;BME280;11852;50.082;18.554;2023-04-24T03:39:46;97536.0;;;14.09;52.36
23361;BME280;11852;50.082;18.554;2023-04-24T03:40:53;97539.0;;;14.11;52.29
23361;BME280;11852;50.082;18.554;2023-04-24T03:42:00;97539.5;;;14.11;52.27
23361;BME280;11852;50.082;18.554;2023-04-24T03:43:07;97538.0;;;14.11;52.25
23361;BME280;11852;50.082;18.554;2023-04-24T03:44:13;97536.0;;;14.12;52.32
23361;BME280;11852;50.082;18.554;2023-04-24T03:45:21;97537.5;;;14.12;52.37
23361;BME280;11852;50.082;18.554;2023-04-24T03:46:28;97538.0;;;14.12;52.38
23361;BME280;11852;50.082;18.554;2023-04-24T03:47:35;97537.0;;;14.12;52.34
23361;BME280;11852;50.082;18.554;2023-04-24T03:48:42;97536.5;;;14.08;52.31
23361;BME280;11852;50.082;18.554;2023-04-24T03:49:49;97536.0;;;14.08;52.4
23361;BME280;11852;50.082;18.554;2023-04-24T03:50:56;97536.5;;;14.1;52.46
23361;BME280;11852;50.082;18.554;2023-04-24T03:52:03;97537.0;;;14.09;52.58
23361;BME280;11852;50.082;18.554;2023-04-24T03:53:10;97537.5;;;14.09;52.67
23361;BME280;11852;50.082;18.554;2023-04-24T03:54:17;97538.0;;;14.07;52.72
23361;BME280;11852;50.082;18.554;2023-04-24T03:55:24;97537.5;;;14.08;52.82
23361;BME280;11852;50.082;18.554;2023-04-24T03:56:31;97536.0;;;14.07;52.98
23361;BME280;11852;50.082;18.554;2023-04-24T03:57:38;97537.5;;;14.07;53.09
23361;BME280;11852;50.082;18.554;2023-04-24T03:58:44;97535.0;;;14.1;52.99
23361;BME280;11852;50.082;18.554;2023-04-24T03:59:52;97536.5;;;14.08;53.16
23361;BME280;11852;50.082;18.554;2023-04-24T04:00:59;97536.5;;;14.03;53.35
23361;BME280;11852;50.082;18.554;2023-04-24T04:02:06;97534.0;;;14.06;53.26
23361;BME280;11852;50.082;18.554;2023-04-24T04:03:13;97537.0;;;14.06;53.39
23361;BME280;11852;50.082;18.554;2023-04-24T04:04:20;97534.5;;;14.07;53.42
23361;BME280;11852;50.082;18.554;2023-04-24T04:05:27;97534.0;;;14.08;53.37
23361;BME280;11852;50.082;18.554;2023-04-24T04:06:36;97537.0;;;14.09;53.39
23361;BME280;11852;50.082;18.554;2023-04-24T04:07:43;97537.0;;;14.06;53.49
23361;BME280;11852;50.082;18.554;2023-04-24T04:08:50;97536.5;;;14.05;53.5
23361;BME280;11852;50.082;18.554;2023-04-24T04:09:57;97537.5;;;14.06;53.45
23361;BME280;11852;50.082;18.554;2023-04-24T04:11:07;97534.5;;;14.03;53.42
23361;BME280;11852;50.082;18.554;2023-04-24T04:12:13;97540.0;;;14.02;53.47
23361;BME280;11852;50.082;18.554;2023-04-24T04:13:20;97537.0;;;14.01;53.45
23361;BME280;11852;50.082;18.554;2023-04-24T04:14:27;97537.5;;;14.02;53.42
23361;BME280;11852;50.082;18.554;2023-04-24T04:15:34;97539.0;;;14.07;53.14
23361;BME280;11852;50.082;18.554;2023-04-24T04:16:41;97540.5;;;14.09;53.07
23361;BME280;11852;50.082;18.554;2023-04-24T04:17:48;97538.5;;;14.1;52.85
23361;BME280;11852;50.082;18.554;2023-04-24T04:18:55;97538.0;;;14.09;52.64
23361;BME280;11852;50.082;18.554;2023-04-24T04:20:02;97541.0;;;14.1;52.67
23361;BME280;11852;50.082;18.554;2023-04-24T04:21:08;97540.0;;;14.11;52.74
23361;BME280;11852;50.082;18.554;2023-04-24T04:22:15;97539.5;;;14.1;52.82
23361;BME280;11852;50.082;18.554;2023-04-24T04:23:23;97540.0;;;14.12;52.78
23361;BME280;11852;50.082;18.554;2023-04-24T04:24:30;97539.0;;;14.15;52.75
23361;BME280;11852;50.082;18.554;2023-04-24T04:25:38;97540.0;;;14.11;52.82
23361;BME280;11852;50.082;18.554;2023-04-24T04:26:46;97539.5;;;14.16;52.95
23361;BME280;11852;50.082;18.554;2023-04-24T04:27:52;97539.0;;;14.17;52.85
23361;BME280;11852;50.082;18.554;2023-04-24T04:28:59;97540.5;;;14.19;52.85
23361;BME280;11852;50.082;18.554;2023-04-24T04:30:07;97539.5;;;14.19;52.99
23361;BME280;11852;50.082;18.554;2023-04-24T04:31:13;97539.5;;;14.2;53.12
23361;BME280;11852;50.082;18.554;2023-04-24T04:32:20;97539.5;;;14.2;53.29
23361;BME280;11852;50.082;18.554;2023-04-24T04:33:27;97541.0;;;14.23;53.76
23361;BME280;11852;50.082;18.554;2023-04-24T04:34:34;97536.0;;;14.22;53.85
23361;BME280;11852;50.082;18.554;2023-04-24T04:35:41;97537.0;;;14.21;53.72
23361;BME280;11852;50.082;18.554;2023-04-24T04:36:48;97538.5;;;14.19;53.64
23361;BME280;11852;50.082;18.554;2023-04-24T04:37:56;97537.5;;;14.2;53.76
23361;BME280;11852;50.082;18.554;2023-04-24T04:39:03;97535.5;;;14.22;53.64
23361;BME280;11852;50.082;18.554;2023-04-24T04:40:10;97536.0;;;14.23;53.65
23361;BME280;11852;50.082;18.554;2023-04-24T04:41:17;97536.5;;;14.2;53.72
23361;BME280;11852;50.082;18.554;2023-04-24T04:42:24;97536.5;;;14.21;53.83
23361;BME280;11852;50.082;18.554;2023-04-24T04:43:30;97540.0;;;14.16;53.82
23361;BME280;11852;50.082;18.554;2023-04-24T04:44:37;97532.99;;;14.16;53.79
23361;BME280;11852;50.082;18.554;2023-04-24T04:45:44;97531.5;;;14.22;53.62
23361;BME280;11852;50.082;18.554;2023-04-24T04:46:51;97533.5;;;14.24;53.65
23361;BME280;11852;50.082;18.554;2023-04-24T04:47:58;97530.0;;;14.27;53.38
23361;BME280;11852;50.082;18.554;2023-04-24T04:49:04;97530.5;;;14.31;53.47
23361;BME280;11852;50.082;18.554;2023-04-24T04:50:11;97531.0;;;14.31;53.49
23361;BME280;11852;50.082;18.554;2023-04-24T04:51:19;97531.5;;;14.34;53.39
23361;BME280;11852;50.082;18.554;2023-04-24T04:52:26;97530.01;;;14.29;53.49
23361;BME280;11852;50.082;18.554;2023-04-24T04:53:33;97534.5;;;14.34;52.84
23361;BME280;11852;50.082;18.554;2023-04-24T04:54:40;97535.0;;;14.35;52.82
23361;BME280;11852;50.082;18.554;2023-04-24T04:55:47;97530.5;;;14.37;52.78
23361;BME280;11852;50.082;18.554;2023-04-24T04:56:54;97531.0;;;14.4;52.55
23361;BME280;11852;50.082;18.554;2023-04-24T04:58:03;97533.5;;;14.47;52.51
23361;BME280;11852;50.082;18.554;2023-04-24T04:59:10;97533.5;;;14.51;52.75
23361;BME280;11852;50.082;18.554;2023-04-24T05:00:17;97532.5;;;14.5;52.67
23361;BME280;11852;50.082;18.554;2023-04-24T05:01:24;97536.0;;;14.55;52.6
23361;BME280;11852;50.082;18.554;2023-04-24T05:02:31;97535.5;;;14.53;52.38
23361;BME280;11852;50.082;18.554;2023-04-24T05:03:38;97535.0;;;14.52;52.33
23361;BME280;11852;50.082;18.554;2023-04-24T05:04:45;97534.5;;;14.59;52.33
23361;BME280;11852;50.082;18.554;2023-04-24T05:05:52;97536.0;;;14.6;52.07
23361;BME280;11852;50.082;18.554;2023-04-24T05:06:59;97534.0;;;14.65;51.78
23361;BME280;11852;50.082;18.554;2023-04-24T05:08:08;97535.0;;;14.69;51.58
23361;BME280;11852;50.082;18.554;2023-04-24T05:09:15;97538.0;;;14.67;51.78
23361;BME280;11852;50.082;18.554;2023-04-24T05:10:22;97537.0;;;14.72;51.58
23361;BME280;11852;50.082;18.554;2023-04-24T05:11:28;97537.0;;;14.73;51.83
23361;BME280;11852;50.082;18.554;2023-04-24T05:12:35;97533.5;;;14.72;51.97
23361;BME280;11852;50.082;18.554;2023-04-24T05:13:42;97533.5;;;14.7;51.92
23361;BME280;11852;50.082;18.554;2023-04-24T05:14:49;97532.49;;;14.78;51.73
23361;BME280;11852;50.082;18.554;2023-04-24T05:15:55;97535.0;;;14.8;51.75
23361;BME280;11852;50.082;18.554;2023-04-24T05:17:02;97532.99;;;14.8;51.46
23361;BME280;11852;50.082;18.554;2023-04-24T05:18:09;97533.5;;;14.84;51.42
23361;BME280;11852;50.082;18.554;2023-04-24T05:19:16;97532.5;;;14.88;51.68
23361;BME280;11852;50.082;18.554;2023-04-24T05:20:23;97534.0;;;14.89;51.56
23361;BME280;11852;50.082;18.554;2023-04-24T05:21:30;97533.5;;;14.91;51.56
23361;BME280;11852;50.082;18.554;2023-04-24T05:22:37;97530.5;;;14.94;51.32
23361;BME280;11852;50.082;18.554;2023-04-24T05:23:44;97531.0;;;14.98;51.31
23361;BME280;11852;50.082;18.554;2023-04-24T05:24:50;97532.0;;;15.01;51.03
23361;BME280;11852;50.082;18.554;2023-04-24T05:25:57;97527.0;;;15.03;50.98
23361;BME280;11852;50.082;18.554;2023-04-24T05:27:07;97527.5;;;15.04;51.13
23361;BME280;11852;50.082;18.554;2023-04-24T05:28:14;97528.5;;;15.07;50.29
23361;BME280;11852;50.082;18.554;2023-04-24T05:29:20;97529.0;;;15.1;50.28
23361;BME280;11852;50.082;18.554;2023-04-24T05:30:27;97525.5;;;15.13;50.49
23361;BME280;11852;50.082;18.554;2023-04-24T05:31:34;97525.5;;;15.18;50.57
23361;BME280;11852;50.082;18.554;2023-04-24T05:32:41;97525.0;;;15.14;50.51
23361;BME280;11852;50.082;18.554;2023-04-24T05:33:48;97527.0;;;15.23;50.33
23361;BME280;11852;50.082;18.554;2023-04-24T05:34:55;97528.0;;;15.2;50.18
23361;BME280;11852;50.082;18.554;2023-04-24T05:36:01;97526.0;;;15.24;50.11
23361;BME280;11852;50.082;18.554;2023-04-24T05:37:08;97526.0;;;15.26;50.2
23361;BME280;11852;50.082;18.554;2023-04-24T05:38:15;97528.5;;;15.31;50.22
23361;BME280;11852;50.082;18.554;2023-04-24T05:39:22;97526.0;;;15.31;49.94
23361;BME280;11852;50.082;18.554;2023-04-24T05:40:29;97525.5;;;15.32;50.22
23361;BME280;11852;50.082;18.554;2023-04-24T05:41:36;97528.0;;;15.39;50.11
23361;BME280;11852;50.082;18.554;2023-04-24T05:42:42;97526.0;;;15.41;50.27
23361;BME280;11852;50.082;18.554;2023-04-24T05:43:49;97525.5;;;15.4;50.52
23361;BME280;11852;50.082;18.554;2023-04-24T05:44:56;97524.5;;;15.42;50.36
23361;BME280;11852;50.082;18.554;2023-04-24T05:46:03;97524.0;;;15.45;50.24
23361;BME280;11852;50.082;18.554;2023-04-24T05:47:10;97523.0;;;15.44;49.69
23361;BME280;11852;50.082;18.554;2023-04-24T05:48:16;97523.0;;;15.49;49.53
23361;BME280;11852;50.082;18.554;2023-04-24T05:49:23;97522.5;;;15.44;49.55
23361;BME280;11852;50.082;18.554;2023-04-24T05:50:30;97520.5;;;15.54;49.82
23361;BME280;11852;50.082;18.554;2023-04-24T05:51:37;97519.99;;;15.56;50.07
23361;BME280;11852;50.082;18.554;2023-04-24T05:52:44;97522.0;;;15.6;49.99
23361;BME280;11852;50.082;18.554;2023-04-24T05:53:51;97521.0;;;15.63;49.78
23361;BME280;11852;50.082;18.554;2023-04-24T05:54:57;97522.0;;;15.69;49.9
23361;BME280;11852;50.082;18.554;2023-04-24T05:56:04;97521.0;;;15.73;49.86